createdAt,value
2019-06-10T00:02:07.921Z,65.15
2019-06-10T00:04:36.959Z,65.78
2019-06-10T00:07:07.278Z,65.11
2019-06-10T00:09:35.756Z,65.00
2019-06-10T00:12:06.007Z,65.20
2019-06-10T00:14:33.513Z,65.17
2019-06-10T00:17:04.460Z,65.84
2019-06-10T00:19:31.755Z,65.23
2019-06-10T00:22:02.407Z,65.32
2019-06-10T00:24:31.349Z,65.62
2019-06-10T00:27:00.303Z,65.94
2019-06-10T00:29:27.768Z,65.61
2019-06-10T00:31:56.901Z,65.52
2019-06-10T00:34:26.710Z,65.79
2019-06-10T00:36:59.643Z,65.81
2019-06-10T00:39:27.300Z,66.02
2019-06-10T00:41:56.140Z,65.53
2019-06-10T00:44:24.976Z,65.62
2019-06-10T00:46:54.628Z,65.58
2019-06-10T00:49:24.229Z,65.94
2019-06-10T00:51:53.063Z,64.93
2019-06-10T00:54:22.104Z,64.92
2019-06-10T00:56:51.761Z,65.75
2019-06-10T00:59:22.007Z,65.60
2019-06-10T01:01:50.896Z,65.42
2019-06-10T01:04:18.187Z,65.45
2019-06-10T01:06:48.280Z,65.93
2019-06-10T01:09:17.193Z,66.39
2019-06-10T01:11:46.074Z,65.98
2019-06-10T01:14:15.796Z,65.73
2019-06-10T01:16:46.201Z,65.97
2019-06-10T01:19:16.793Z,66.00
2019-06-10T01:21:46.864Z,65.84
2019-06-10T01:24:15.912Z,65.67
2019-06-10T01:26:44.871Z,65.82
2019-06-10T01:29:15.484Z,65.91
2019-06-10T01:31:42.676Z,65.76
2019-06-10T01:34:12.410Z,66.08
2019-06-10T01:36:40.665Z,65.81
2019-06-10T01:39:13.549Z,65.94
2019-06-10T01:41:41.039Z,66.02
2019-06-10T01:44:11.531Z,65.42
2019-06-10T01:46:41.026Z,65.39
2019-06-10T01:49:09.570Z,65.86
2019-06-10T01:51:37.562Z,65.70
2019-06-10T01:54:07.420Z,66.22
2019-06-10T01:56:35.303Z,65.90
2019-06-10T01:59:04.244Z,65.71
2019-06-10T02:01:44.330Z,65.56
2019-06-10T02:04:15.880Z,66.24
2019-06-10T02:06:42.110Z,66.19
2019-06-10T02:09:13.485Z,66.10
2019-06-10T02:11:41.418Z,66.07
2019-06-10T02:14:12.932Z,66.17
2019-06-10T02:16:41.297Z,66.14
2019-06-10T02:19:07.632Z,65.88
2019-06-10T02:21:36.475Z,66.01
2019-06-10T02:24:05.824Z,66.17
2019-06-10T02:26:36.389Z,66.68
2019-06-10T02:29:05.410Z,66.73
2019-06-10T02:31:37.411Z,66.98
2019-06-10T02:34:03.678Z,66.51
2019-06-10T02:36:36.577Z,67.24
2019-06-10T02:39:04.290Z,67.50
2019-06-10T02:41:35.381Z,67.10
2019-06-10T02:44:03.973Z,67.47
2019-06-10T02:46:31.363Z,66.88
2019-06-10T02:49:19.870Z,66.77
2019-06-10T02:51:31.548Z,67.21
2019-06-10T02:53:58.495Z,67.30
2019-06-10T02:56:30.721Z,67.52
2019-06-10T02:58:56.463Z,67.71
2019-06-10T03:01:32.205Z,67.44
2019-06-10T03:03:54.852Z,67.93
2019-06-10T03:06:31.845Z,67.99
2019-06-10T03:08:54.846Z,67.63
2019-06-10T03:11:27.251Z,67.78
2019-06-10T03:13:53.120Z,67.62
2019-06-10T03:16:25.843Z,67.76
2019-06-10T03:18:54.244Z,67.46
2019-06-10T03:21:25.855Z,67.40
2019-06-10T03:23:55.114Z,67.47
2019-06-10T03:26:25.580Z,68.00
2019-06-10T03:28:52.943Z,68.15
2019-06-10T03:31:30.923Z,68.59
2019-06-10T03:33:54.318Z,68.22
2019-06-10T03:36:24.107Z,68.42
2019-06-10T03:38:53.722Z,68.64
2019-06-10T03:41:22.900Z,68.98
2019-06-10T03:43:49.509Z,69.21
2019-06-10T03:46:19.050Z,69.29
2019-06-10T03:48:47.400Z,69.59
2019-06-10T03:51:17.197Z,69.21
2019-06-10T03:53:45.915Z,69.16
2019-06-10T03:56:14.856Z,69.60
2019-06-10T03:58:43.676Z,68.98
2019-06-10T04:01:12.675Z,69.06
2019-06-10T04:03:42.651Z,68.97
2019-06-10T04:06:12.665Z,69.12
2019-06-10T04:08:39.396Z,68.91
2019-06-10T04:11:08.308Z,68.87
2019-06-10T04:13:37.240Z,68.72
2019-06-10T04:16:06.226Z,68.04
2019-06-10T04:18:35.981Z,68.16
2019-06-10T04:21:04.956Z,67.98
2019-06-10T04:23:33.932Z,67.98
2019-06-10T04:26:03.439Z,67.87
2019-06-10T04:28:33.774Z,67.64
2019-06-10T04:31:02.590Z,67.31
2019-06-10T04:33:32.658Z,67.07
2019-06-10T04:36:02.589Z,66.92
2019-06-10T04:38:29.844Z,66.64
2019-06-10T04:40:59.533Z,66.27
2019-06-10T04:43:28.938Z,65.59
2019-06-10T04:45:57.411Z,64.54
2019-06-10T04:48:27.688Z,64.03
2019-06-10T04:50:56.160Z,62.21
2019-06-10T04:53:26.761Z,60.55
2019-06-10T04:55:53.924Z,59.72
2019-06-10T04:58:26.752Z,58.74
2019-06-10T05:00:52.788Z,58.85
2019-06-10T05:03:23.821Z,58.50
2019-06-10T05:05:52.576Z,58.38
2019-06-10T05:08:19.524Z,58.20
2019-06-10T05:10:48.463Z,57.57
2019-06-10T05:13:17.319Z,58.34
2019-06-10T05:15:46.225Z,58.58
2019-06-10T05:18:16.110Z,58.38
2019-06-10T05:20:54.818Z,57.93
2019-06-10T05:23:15.119Z,58.23
2019-06-10T05:25:43.964Z,58.41
2019-06-10T05:28:13.019Z,58.51
2019-06-10T05:30:42.689Z,58.52
2019-06-10T05:33:10.751Z,58.70
2019-06-10T05:35:39.650Z,59.28
2019-06-10T05:38:08.522Z,58.96
2019-06-10T05:40:37.974Z,60.07
2019-06-10T05:43:06.887Z,59.71
2019-06-10T05:45:35.810Z,59.46
2019-06-10T05:48:04.650Z,59.83
2019-06-10T05:50:34.910Z,60.10
2019-06-10T05:53:02.568Z,60.50
2019-06-10T05:55:33.753Z,59.98
2019-06-10T05:58:04.321Z,59.66
2019-06-10T06:00:35.439Z,59.89
2019-06-10T06:03:02.856Z,59.73
2019-06-10T06:05:33.291Z,59.55
2019-06-10T06:08:07.665Z,59.63
2019-06-10T06:10:29.484Z,59.57
2019-06-10T06:12:58.824Z,58.77
2019-06-10T06:15:27.651Z,55.57
2019-06-10T06:18:07.146Z,51.37
2019-06-10T06:20:27.135Z,48.25
2019-06-10T06:22:56.216Z,45.09
2019-06-10T06:25:27.394Z,42.18
2019-06-10T06:27:54.064Z,43.68
2019-06-10T06:30:23.052Z,42.98
2019-06-10T06:32:53.323Z,44.66
2019-06-10T06:35:22.698Z,46.00
2019-06-10T06:37:53.976Z,44.86
2019-06-10T06:40:22.968Z,43.98
2019-06-10T06:42:52.424Z,42.89
2019-06-10T06:45:19.242Z,43.33
2019-06-10T06:47:48.167Z,43.30
2019-06-10T06:50:17.049Z,44.03
2019-06-10T06:53:15.331Z,44.11
2019-06-10T06:55:20.407Z,44.37
2019-06-10T06:57:52.877Z,43.72
2019-06-10T07:00:38.334Z,43.79
2019-06-10T07:02:52.943Z,44.80
2019-06-10T07:05:22.822Z,44.50
2019-06-10T07:07:49.883Z,44.86
2019-06-10T07:10:18.792Z,44.53
2019-06-10T07:12:47.643Z,44.63
2019-06-10T07:15:16.503Z,44.31
2019-06-10T07:17:46.322Z,44.34
2019-06-10T07:20:15.763Z,45.18
2019-06-10T07:22:46.726Z,44.61
2019-06-10T07:25:13.927Z,44.20
2019-06-10T07:27:45.170Z,44.65
2019-06-10T07:30:15.190Z,43.36
2019-06-10T07:32:46.815Z,43.56
2019-06-10T07:35:12.845Z,44.55
2019-06-10T07:37:41.668Z,44.62
2019-06-10T07:40:09.638Z,44.29
2019-06-10T07:42:38.996Z,44.53
2019-06-10T07:45:07.407Z,44.42
2019-06-10T07:47:37.002Z,44.96
2019-06-10T07:50:06.161Z,44.32
2019-06-10T07:52:35.985Z,44.94
2019-06-10T07:55:04.298Z,44.48
2019-06-10T07:57:34.767Z,43.95
2019-06-10T08:00:03.636Z,43.80
2019-06-10T08:02:34.074Z,44.84
2019-06-10T08:05:03.658Z,44.58
2019-06-10T08:07:33.422Z,45.23
2019-06-10T08:10:02.889Z,42.92
2019-06-10T08:12:29.571Z,44.19
2019-06-10T08:15:02.540Z,44.21
2019-06-10T08:17:28.845Z,45.38
2019-06-10T08:19:57.951Z,44.98
2019-06-10T08:22:33.429Z,44.42
2019-06-10T08:24:58.268Z,43.97
2019-06-10T08:27:27.340Z,43.30
2019-06-10T08:30:14.075Z,43.04
2019-06-10T08:32:25.651Z,43.39
2019-06-10T08:34:56.015Z,43.48
2019-06-10T08:37:24.933Z,44.49
2019-06-10T08:39:55.389Z,43.26
2019-06-10T08:42:24.645Z,42.74
2019-06-10T08:44:54.192Z,44.36
2019-06-10T08:47:23.139Z,43.76
2019-06-10T08:49:53.640Z,43.92
2019-06-10T08:52:23.915Z,45.12
2019-06-10T08:54:54.525Z,45.13
2019-06-10T08:57:23.865Z,44.59
2019-06-10T08:59:53.343Z,43.76
2019-06-10T09:02:23.031Z,44.30
2019-06-10T09:04:53.590Z,44.37
2019-06-10T09:07:19.778Z,44.63
2019-06-10T09:09:50.313Z,44.90
2019-06-10T09:12:32.482Z,43.88
2019-06-10T09:14:53.390Z,43.97
2019-06-10T09:17:23.390Z,43.78
2019-06-10T09:19:54.813Z,44.51
2019-06-10T09:22:23.963Z,44.96
2019-06-10T09:24:56.372Z,44.08
2019-06-10T09:27:26.728Z,43.42
2019-06-10T09:29:55.347Z,41.78
2019-06-10T09:32:24.804Z,41.93
2019-06-10T09:34:57.553Z,40.56
2019-06-10T09:37:27.111Z,41.73
2019-06-10T09:39:59.569Z,43.12
2019-06-10T09:42:27.471Z,43.59
2019-06-10T09:45:02.437Z,41.75
2019-06-10T09:47:33.979Z,41.41
2019-06-10T09:50:03.189Z,41.32
2019-06-10T09:52:33.750Z,41.55
2019-06-10T09:55:03.312Z,42.71
2019-06-10T09:57:32.253Z,42.39
2019-06-10T10:00:04.060Z,41.57
2019-06-10T10:02:30.164Z,41.78
2019-06-10T10:04:59.064Z,42.21
2019-06-10T10:07:28.170Z,41.59
2019-06-10T10:09:57.455Z,41.99
2019-06-10T10:12:25.899Z,41.92
2019-06-10T10:14:56.294Z,40.41
2019-06-10T10:17:24.071Z,40.42
2019-06-10T10:19:56.751Z,40.60
2019-06-10T10:22:23.006Z,41.45
2019-06-10T10:24:55.144Z,41.86
2019-06-10T10:27:23.233Z,43.11
2019-06-10T10:29:55.084Z,42.75
2019-06-10T10:32:19.522Z,42.25
2019-06-10T10:34:49.870Z,41.79
2019-06-10T10:37:18.114Z,40.98
2019-06-10T10:39:47.123Z,41.66
2019-06-10T10:42:16.008Z,41.70
2019-06-10T10:44:49.184Z,42.96
2019-06-10T10:47:15.466Z,41.89
2019-06-10T10:49:44.984Z,40.82
2019-06-10T10:52:13.472Z,41.07
2019-06-10T10:54:44.598Z,41.42
2019-06-10T10:57:13.210Z,41.38
2019-06-10T10:59:44.732Z,41.56
2019-06-10T11:02:12.732Z,39.74
2019-06-10T11:04:44.328Z,40.11
2019-06-10T11:07:12.948Z,40.62
2019-06-10T11:09:42.469Z,41.00
2019-06-10T11:12:10.535Z,40.98
2019-06-10T11:14:42.424Z,41.64
2019-06-10T11:17:09.608Z,41.47
2019-06-10T11:19:38.468Z,41.27
2019-06-10T11:22:07.381Z,41.72
2019-06-10T11:24:41.190Z,41.10
2019-06-10T11:27:05.130Z,40.40
2019-06-10T11:29:33.979Z,40.46
2019-06-10T11:32:03.392Z,39.21
2019-06-10T11:34:33.275Z,40.33
2019-06-10T11:37:02.308Z,39.16
2019-06-10T11:39:33.286Z,38.22
2019-06-10T11:42:02.218Z,38.02
2019-06-10T11:44:29.827Z,37.66
2019-06-10T11:46:59.721Z,38.45
2019-06-10T11:49:28.703Z,38.65
2019-06-10T11:51:59.690Z,37.54
2019-06-10T11:54:29.079Z,38.71
2019-06-10T11:56:58.758Z,38.53
2019-06-10T11:59:26.753Z,39.01
2019-06-10T12:02:01.700Z,36.82
2019-06-10T12:04:27.936Z,36.88
2019-06-10T12:06:57.051Z,37.55
2019-06-10T12:09:25.923Z,38.40
2019-06-10T12:12:01.410Z,37.67
2019-06-10T12:14:27.168Z,38.86
2019-06-10T12:19:23.763Z,38.31
2019-06-10T12:21:55.676Z,39.62
2019-06-10T12:24:23.048Z,37.49
2019-06-10T12:26:57.989Z,38.12
2019-06-10T12:29:23.671Z,37.89
2019-06-10T12:31:56.145Z,37.73
2019-06-10T12:34:22.721Z,39.90
2019-06-10T12:36:56.292Z,39.50
2019-06-10T12:39:22.903Z,39.62
2019-06-10T12:41:53.154Z,41.15
2019-06-10T12:44:22.609Z,38.96
2019-06-10T12:46:53.303Z,40.39
2019-06-10T12:49:19.188Z,39.64
2019-06-10T12:51:48.019Z,39.11
2019-06-10T12:54:16.929Z,40.53
2019-06-10T12:56:48.151Z,40.91
2019-06-10T12:59:17.656Z,40.10
2019-06-10T13:01:46.750Z,39.74
2019-06-10T13:04:16.155Z,39.55
2019-06-10T13:06:44.982Z,40.03
2019-06-10T13:09:15.548Z,38.96
2019-06-10T13:11:44.501Z,39.43
2019-06-10T13:14:14.419Z,39.24
2019-06-10T13:16:44.118Z,38.62
2019-06-10T13:19:13.430Z,39.62
2019-06-10T13:21:42.583Z,39.65
2019-06-10T13:24:12.935Z,39.60
2019-06-10T13:26:39.646Z,40.24
2019-06-10T13:29:10.222Z,41.08
2019-06-10T13:31:38.067Z,40.50
2019-06-10T13:34:11.337Z,39.47
2019-06-10T13:36:36.467Z,40.55
2019-06-10T13:39:10.164Z,40.19
2019-06-10T13:41:36.745Z,40.11
2019-06-10T13:44:08.292Z,39.92
2019-06-10T13:46:35.996Z,40.18
2019-06-10T13:49:08.629Z,40.68
2019-06-10T13:51:35.646Z,41.02
2019-06-10T13:54:06.298Z,40.34
2019-06-10T13:56:46.149Z,39.27
2019-06-10T13:59:04.091Z,40.22
2019-06-10T14:01:34.890Z,40.63
2019-06-10T14:04:02.878Z,40.27
2019-06-10T14:06:45.466Z,40.69
2019-06-10T14:08:58.046Z,40.21
2019-06-10T14:11:29.983Z,40.03
2019-06-10T14:13:56.079Z,39.09
2019-06-10T14:16:25.015Z,39.82
2019-06-10T14:18:54.262Z,39.41
2019-06-10T14:21:23.543Z,40.01
2019-06-10T14:23:53.755Z,40.56
2019-06-10T14:26:37.156Z,40.58
2019-06-10T14:28:52.586Z,42.12
2019-06-10T14:31:38.296Z,41.68
2019-06-10T14:33:49.796Z,42.27
2019-06-10T14:36:18.760Z,41.32
2019-06-10T14:38:47.693Z,42.37
2019-06-10T14:41:16.589Z,41.93
2019-06-10T14:43:45.512Z,42.46
2019-06-10T14:46:17.587Z,41.97
2019-06-10T14:48:45.851Z,41.15
2019-06-10T14:51:16.883Z,40.66
2019-06-10T14:53:43.933Z,41.54
2019-06-10T14:56:16.505Z,40.66
2019-06-10T14:58:43.280Z,40.77
2019-06-10T15:01:18.822Z,40.75
2019-06-10T15:03:42.964Z,40.84
2019-06-10T15:06:11.425Z,39.61
2019-06-10T15:08:42.707Z,39.94
2019-06-10T15:11:09.666Z,39.53
2019-06-10T15:13:38.135Z,40.17
2019-06-10T15:16:08.215Z,39.08
2019-06-10T15:18:36.245Z,38.91
2019-06-10T15:21:05.284Z,39.75
2019-06-10T15:23:34.167Z,39.09
2019-06-10T15:26:03.205Z,39.35
2019-06-10T15:28:32.050Z,38.52
2019-06-10T15:31:03.046Z,38.46
2019-06-10T15:33:32.833Z,39.34
2019-06-10T15:36:03.642Z,38.67
2019-06-10T15:38:32.937Z,39.39
2019-06-10T15:41:02.392Z,38.54
2019-06-10T15:43:33.068Z,38.86
2019-06-10T15:46:03.394Z,39.04
2019-06-10T15:48:31.719Z,39.42
2019-06-10T15:51:03.056Z,39.40
2019-06-10T15:53:32.731Z,39.93
2019-06-10T15:56:29.874Z,39.47
2019-06-10T15:58:31.972Z,38.18
2019-06-10T16:00:58.941Z,39.18
2019-06-10T16:03:27.978Z,38.54
2019-06-10T16:05:56.877Z,38.78
2019-06-10T16:08:25.889Z,39.17
2019-06-10T16:10:54.767Z,38.29
2019-06-10T16:13:25.812Z,38.80
2019-06-10T16:15:53.455Z,39.10
2019-06-10T16:18:26.029Z,39.59
2019-06-10T16:20:52.720Z,40.18
2019-06-10T16:23:23.015Z,40.39
2019-06-10T16:25:49.237Z,39.88
2019-06-10T16:28:20.805Z,39.84
2019-06-10T16:30:49.499Z,40.08
2019-06-10T16:33:19.115Z,40.03
2019-06-10T16:35:48.090Z,39.71
2019-06-10T16:38:17.012Z,40.49
2019-06-10T16:40:45.975Z,39.48
2019-06-10T16:43:15.622Z,40.04
2019-06-10T16:45:43.771Z,40.45
2019-06-10T16:48:12.993Z,40.26
2019-06-10T16:50:42.640Z,40.14
2019-06-10T16:53:13.443Z,40.46
2019-06-10T16:55:39.927Z,40.50
2019-06-10T16:58:08.850Z,39.98
2019-06-10T17:00:37.672Z,40.64
2019-06-10T17:03:06.592Z,40.38
2019-06-10T17:05:35.593Z,40.64
2019-06-10T17:08:04.514Z,40.07
2019-06-10T17:10:34.464Z,39.83
2019-06-10T17:13:03.548Z,40.43
2019-06-10T17:15:34.216Z,40.79
2019-06-10T17:18:03.108Z,40.88
2019-06-10T17:20:34.189Z,41.82
2019-06-10T17:23:05.315Z,40.57
2019-06-10T17:25:34.453Z,41.32
2019-06-10T17:28:17.749Z,42.41
2019-06-10T17:30:34.742Z,43.24
2019-06-10T17:33:02.296Z,43.51
2019-06-10T17:35:36.403Z,44.64
2019-06-10T17:37:59.740Z,44.62
2019-06-10T17:40:29.202Z,44.96
2019-06-10T17:42:57.754Z,45.32
2019-06-10T17:45:28.844Z,45.25
2019-06-10T17:47:56.247Z,45.62
2019-06-10T17:50:28.019Z,46.14
2019-06-10T17:52:56.005Z,46.55
2019-06-10T17:55:26.568Z,47.01
2019-06-10T17:57:54.497Z,47.36
2019-06-10T18:00:25.934Z,47.40
2019-06-10T18:02:53.561Z,47.83
2019-06-10T18:05:23.740Z,47.91
2019-06-10T18:07:52.750Z,48.77
2019-06-10T18:10:22.787Z,50.64
2019-06-10T18:12:52.748Z,50.27
2019-06-10T18:15:22.087Z,50.61
2019-06-10T18:17:49.107Z,51.65
2019-06-10T18:20:18.279Z,52.12
2019-06-10T18:22:49.430Z,53.13
2019-06-10T18:25:18.348Z,52.75
2019-06-10T18:27:49.035Z,53.03
2019-06-10T18:30:17.936Z,53.54
2019-06-10T18:32:46.784Z,54.38
2019-06-10T18:35:16.175Z,56.07
2019-06-10T18:37:45.750Z,57.34
2019-06-10T18:40:14.793Z,60.91
2019-06-10T18:42:44.562Z,61.51
2019-06-10T18:45:14.223Z,61.41
2019-06-10T18:47:43.855Z,61.57
2019-06-10T18:50:12.816Z,62.70
2019-06-10T18:52:43.304Z,62.25
2019-06-10T18:55:12.262Z,61.83
2019-06-10T18:57:42.455Z,62.22
2019-06-10T19:00:11.918Z,62.94
2019-06-10T19:02:39.646Z,62.55
2019-06-10T19:05:13.055Z,63.58
2019-06-10T19:07:42.863Z,62.50
2019-06-10T19:10:10.554Z,63.06
2019-06-10T19:12:39.791Z,63.70
2019-06-10T19:15:09.392Z,64.04
2019-06-10T19:17:40.472Z,64.38
2019-06-10T19:20:09.298Z,64.68
2019-06-10T19:22:39.062Z,64.86
2019-06-10T19:25:08.661Z,65.02
2019-06-10T19:27:39.527Z,64.91
2019-06-10T19:30:07.877Z,64.55
2019-06-10T19:32:38.296Z,66.04
2019-06-10T19:35:07.026Z,64.96
2019-06-10T19:37:36.124Z,64.73
2019-06-10T19:40:04.932Z,64.21
2019-06-10T19:42:37.214Z,64.29
2019-06-10T19:45:07.160Z,64.29
2019-06-10T19:47:37.994Z,63.63
2019-06-10T19:50:07.123Z,63.41
2019-06-10T19:52:37.215Z,62.34
2019-06-10T19:55:07.939Z,62.03
2019-06-10T19:57:37.495Z,61.79
2019-06-10T20:00:11.692Z,61.46
2019-06-10T20:02:35.814Z,62.37
2019-06-10T20:05:06.110Z,61.92
2019-06-10T20:07:35.848Z,62.16
2019-06-10T20:10:05.122Z,62.24
2019-06-10T20:12:34.265Z,61.69
2019-06-10T20:15:02.912Z,62.87
2019-06-10T20:17:32.800Z,62.59
2019-06-10T20:20:02.546Z,62.81
2019-06-10T20:22:32.042Z,63.00
2019-06-10T20:24:59.286Z,63.29
2019-06-10T20:27:33.046Z,64.44
2019-06-10T20:30:10.185Z,64.27
2019-06-10T20:32:29.178Z,64.96
2019-06-10T20:34:58.804Z,64.81
2019-06-10T20:37:28.424Z,65.10
2019-06-10T20:39:57.563Z,65.18
2019-06-10T20:42:26.440Z,65.37
2019-06-10T20:44:55.635Z,65.20
2019-06-10T20:47:24.546Z,65.92
2019-06-10T20:49:55.966Z,65.56
2019-06-10T20:52:23.358Z,66.68
2019-06-10T20:54:53.196Z,66.52
2019-06-10T20:57:22.926Z,65.98
2019-06-10T20:59:53.155Z,66.31
2019-06-10T21:02:22.537Z,65.91
2019-06-10T21:04:53.270Z,66.20
2019-06-10T21:07:25.355Z,66.44
2019-06-10T21:09:56.204Z,67.39
2019-06-10T21:12:25.575Z,67.18
2019-06-10T21:14:55.902Z,66.72
2019-06-10T21:17:24.731Z,66.54
2019-06-10T21:19:54.776Z,66.70
2019-06-10T21:22:23.841Z,66.81
2019-06-10T21:24:53.776Z,66.78
2019-06-10T21:27:24.043Z,66.10
2019-06-10T21:29:54.698Z,66.26
2019-06-10T21:32:23.085Z,66.34
2019-06-10T21:34:53.888Z,66.48
2019-06-10T21:37:22.926Z,65.80
2019-06-10T21:39:55.400Z,65.94
2019-06-10T21:42:22.912Z,66.03
2019-06-10T21:44:50.532Z,66.24
2019-06-10T21:47:20.014Z,65.73
2019-06-10T21:49:53.094Z,66.11
2019-06-10T21:52:19.467Z,65.60
2019-06-10T21:54:48.629Z,66.67
2019-06-10T21:57:17.556Z,66.13
2019-06-10T21:59:47.035Z,66.24
2019-06-10T22:02:17.359Z,66.02
2019-06-10T22:04:47.806Z,67.03
2019-06-10T22:07:15.550Z,66.78
2019-06-10T22:09:45.598Z,66.94
2019-06-10T22:12:14.828Z,67.20
2019-06-10T22:14:46.119Z,67.65
2019-06-10T22:17:14.186Z,67.24
2019-06-10T22:19:44.543Z,67.71
2019-06-10T22:22:13.155Z,67.75
2019-06-10T22:24:42.461Z,67.02
2019-06-10T22:27:13.005Z,68.02
2019-06-10T22:29:42.695Z,67.71
2019-06-10T22:32:12.965Z,67.52
2019-06-10T22:34:42.129Z,68.04
2019-06-10T22:37:12.460Z,68.28
2019-06-10T22:39:42.040Z,67.94
2019-06-10T22:42:12.365Z,67.98
2019-06-10T22:44:42.370Z,68.29
2019-06-10T22:47:12.176Z,68.43
2019-06-10T22:49:43.031Z,68.99
2019-06-10T22:52:12.410Z,68.73
2019-06-10T22:54:43.054Z,68.17
2019-06-10T22:57:12.828Z,69.21
2019-06-10T22:59:39.170Z,68.81
2019-06-10T23:02:08.199Z,69.07
2019-06-10T23:04:43.241Z,67.64
2019-06-10T23:07:09.858Z,68.06
2019-06-10T23:09:39.003Z,68.41
2019-06-10T23:12:07.983Z,68.77
2019-06-10T23:14:37.788Z,68.92
2019-06-10T23:17:07.996Z,68.81
2019-06-10T23:19:37.596Z,68.43
2019-06-10T23:22:06.488Z,69.11
2019-06-10T23:24:35.305Z,68.81
2019-06-10T23:27:04.206Z,69.19
2019-06-10T23:29:36.274Z,69.11
2019-06-10T23:32:06.970Z,69.96
2019-06-10T23:34:37.559Z,70.11
2019-06-10T23:37:06.726Z,69.43
2019-06-10T23:39:35.573Z,69.90
2019-06-10T23:42:04.587Z,69.90
2019-06-10T23:44:33.901Z,70.34
2019-06-10T23:47:04.074Z,69.65
2019-06-10T23:49:32.291Z,70.42
2019-06-10T23:52:03.730Z,70.37
2019-06-10T23:54:32.304Z,70.60
2019-06-10T23:56:59.191Z,70.20
2019-06-10T23:59:28.060Z,70.56
